sensor_id;sensor_type;location;lat;lon;timestamp;P1;durP1;ratioP1;P2;durP2;ratioP2
31760;SDS011;18335;51.486;7.562;2023-03-05T00:01:51;10.60;;;2.70;;
31760;SDS011;18335;51.486;7.562;2023-03-05T00:04:18;8.80;;;1.65;;
31760;SDS011;18335;51.486;7.562;2023-03-05T00:06:45;9.27;;;1.83;;
31760;SDS011;18335;51.486;7.562;2023-03-05T00:09:12;4.20;;;1.58;;
31760;SDS011;18335;51.486;7.562;2023-03-05T00:11:39;13.02;;;2.25;;
31760;SDS011;18335;51.486;7.562;2023-03-05T00:14:08;7.38;;;1.40;;
31760;SDS011;18335;51.486;7.562;2023-03-05T00:16:35;10.95;;;1.52;;
31760;SDS011;18335;51.486;7.562;2023-03-05T00:19:02;9.88;;;2.22;;
31760;SDS011;18335;51.486;7.562;2023-03-05T00:21:30;11.90;;;1.88;;
31760;SDS011;18335;51.486;7.562;2023-03-05T00:23:59;11.15;;;2.13;;
31760;SDS011;18335;51.486;7.562;2023-03-05T00:26:27;11.43;;;2.03;;
31760;SDS011;18335;51.486;7.562;2023-03-05T00:28:55;8.48;;;1.75;;
31760;SDS011;18335;51.486;7.562;2023-03-05T00:31:25;9.88;;;2.10;;
31760;SDS011;18335;51.486;7.562;2023-03-05T00:33:56;7.50;;;2.00;;
31760;SDS011;18335;51.486;7.562;2023-03-05T00:36:24;10.55;;;2.15;;
31760;SDS011;18335;51.486;7.562;2023-03-05T00:38:51;7.55;;;2.35;;
31760;SDS011;18335;51.486;7.562;2023-03-05T00:41:18;6.85;;;1.98;;
31760;SDS011;18335;51.486;7.562;2023-03-05T00:43:45;10.95;;;1.92;;
31760;SDS011;18335;51.486;7.562;2023-03-05T00:46:12;12.10;;;2.60;;
31760;SDS011;18335;51.486;7.562;2023-03-05T00:48:40;12.35;;;3.17;;
31760;SDS011;18335;51.486;7.562;2023-03-05T00:51:07;10.68;;;2.92;;
31760;SDS011;18335;51.486;7.562;2023-03-05T00:53:34;12.93;;;2.15;;
31760;SDS011;18335;51.486;7.562;2023-03-05T00:56:01;16.70;;;3.65;;
31760;SDS011;18335;51.486;7.562;2023-03-05T00:58:27;13.18;;;2.72;;
31760;SDS011;18335;51.486;7.562;2023-03-05T01:00:56;19.83;;;3.25;;
31760;SDS011;18335;51.486;7.562;2023-03-05T01:03:23;16.35;;;3.65;;
31760;SDS011;18335;51.486;7.562;2023-03-05T01:05:51;10.25;;;2.40;;
31760;SDS011;18335;51.486;7.562;2023-03-05T01:08:18;15.43;;;3.53;;
31760;SDS011;18335;51.486;7.562;2023-03-05T01:10:45;13.45;;;3.33;;
31760;SDS011;18335;51.486;7.562;2023-03-05T01:13:11;12.70;;;3.70;;
31760;SDS011;18335;51.486;7.562;2023-03-05T01:15:38;17.48;;;3.03;;
31760;SDS011;18335;51.486;7.562;2023-03-05T01:18:05;18.75;;;5.70;;
31760;SDS011;18335;51.486;7.562;2023-03-05T01:20:32;16.70;;;3.10;;
31760;SDS011;18335;51.486;7.562;2023-03-05T01:23:00;13.27;;;2.85;;
31760;SDS011;18335;51.486;7.562;2023-03-05T01:25:27;11.60;;;3.58;;
31760;SDS011;18335;51.486;7.562;2023-03-05T01:27:54;10.13;;;3.08;;
31760;SDS011;18335;51.486;7.562;2023-03-05T01:30:21;9.15;;;2.55;;
31760;SDS011;18335;51.486;7.562;2023-03-05T01:32:48;13.95;;;3.00;;
31760;SDS011;18335;51.486;7.562;2023-03-05T01:35:16;11.20;;;2.38;;
31760;SDS011;18335;51.486;7.562;2023-03-05T01:37:44;12.65;;;3.00;;
31760;SDS011;18335;51.486;7.562;2023-03-05T01:40:14;13.18;;;2.58;;
31760;SDS011;18335;51.486;7.562;2023-03-05T01:42:44;12.50;;;3.33;;
31760;SDS011;18335;51.486;7.562;2023-03-05T01:45:13;14.48;;;3.08;;
31760;SDS011;18335;51.486;7.562;2023-03-05T01:47:40;12.57;;;3.00;;
31760;SDS011;18335;51.486;7.562;2023-03-05T01:50:08;13.90;;;3.13;;
31760;SDS011;18335;51.486;7.562;2023-03-05T01:52:39;14.40;;;3.85;;
31760;SDS011;18335;51.486;7.562;2023-03-05T01:55:10;13.02;;;3.80;;
31760;SDS011;18335;51.486;7.562;2023-03-05T01:57:41;13.38;;;3.65;;
31760;SDS011;18335;51.486;7.562;2023-03-05T02:00:12;14.25;;;3.80;;
31760;SDS011;18335;51.486;7.562;2023-03-05T02:02:42;14.38;;;3.95;;
31760;SDS011;18335;51.486;7.562;2023-03-05T02:05:11;15.95;;;3.83;;
31760;SDS011;18335;51.486;7.562;2023-03-05T02:07:41;19.35;;;3.85;;
31760;SDS011;18335;51.486;7.562;2023-03-05T02:10:18;15.30;;;4.13;;
31760;SDS011;18335;51.486;7.562;2023-03-05T02:12:49;15.70;;;4.20;;
31760;SDS011;18335;51.486;7.562;2023-03-05T02:15:16;16.42;;;5.20;;
31760;SDS011;18335;51.486;7.562;2023-03-05T02:17:44;15.30;;;4.20;;
31760;SDS011;18335;51.486;7.562;2023-03-05T02:20:11;16.90;;;5.90;;
31760;SDS011;18335;51.486;7.562;2023-03-05T02:22:41;16.08;;;3.95;;
31760;SDS011;18335;51.486;7.562;2023-03-05T02:25:12;15.10;;;3.42;;
31760;SDS011;18335;51.486;7.562;2023-03-05T02:27:42;10.90;;;4.18;;
31760;SDS011;18335;51.486;7.562;2023-03-05T02:30:15;15.48;;;3.92;;
31760;SDS011;18335;51.486;7.562;2023-03-05T02:32:42;15.02;;;4.85;;
31760;SDS011;18335;51.486;7.562;2023-03-05T02:35:09;15.10;;;4.15;;
31760;SDS011;18335;51.486;7.562;2023-03-05T02:37:36;13.27;;;3.78;;
31760;SDS011;18335;51.486;7.562;2023-03-05T02:40:06;10.43;;;3.65;;
31760;SDS011;18335;51.486;7.562;2023-03-05T02:42:34;17.65;;;4.43;;
31760;SDS011;18335;51.486;7.562;2023-03-05T02:45:02;15.07;;;4.05;;
31760;SDS011;18335;51.486;7.562;2023-03-05T02:47:30;16.60;;;4.05;;
31760;SDS011;18335;51.486;7.562;2023-03-05T02:49:56;14.75;;;3.83;;
31760;SDS011;18335;51.486;7.562;2023-03-05T02:52:24;17.73;;;4.68;;
31760;SDS011;18335;51.486;7.562;2023-03-05T02:54:51;11.93;;;3.53;;
31760;SDS011;18335;51.486;7.562;2023-03-05T02:57:19;17.63;;;3.50;;
31760;SDS011;18335;51.486;7.562;2023-03-05T02:59:46;17.98;;;3.25;;
31760;SDS011;18335;51.486;7.562;2023-03-05T03:02:14;16.40;;;2.80;;
31760;SDS011;18335;51.486;7.562;2023-03-05T03:04:41;15.35;;;3.05;;
31760;SDS011;18335;51.486;7.562;2023-03-05T03:07:08;8.65;;;2.40;;
31760;SDS011;18335;51.486;7.562;2023-03-05T03:09:36;11.65;;;3.88;;
31760;SDS011;18335;51.486;7.562;2023-03-05T03:12:04;12.45;;;2.33;;
31760;SDS011;18335;51.486;7.562;2023-03-05T03:14:35;13.20;;;2.47;;
31760;SDS011;18335;51.486;7.562;2023-03-05T03:17:04;8.20;;;2.15;;
31760;SDS011;18335;51.486;7.562;2023-03-05T03:19:31;13.07;;;2.17;;
31760;SDS011;18335;51.486;7.562;2023-03-05T03:21:58;9.10;;;2.35;;
31760;SDS011;18335;51.486;7.562;2023-03-05T03:24:25;14.45;;;4.18;;
31760;SDS011;18335;51.486;7.562;2023-03-05T03:26:52;14.70;;;2.90;;
31760;SDS011;18335;51.486;7.562;2023-03-05T03:29:18;9.82;;;2.30;;
31760;SDS011;18335;51.486;7.562;2023-03-05T03:31:47;17.65;;;3.53;;
31760;SDS011;18335;51.486;7.562;2023-03-05T03:34:14;14.13;;;2.65;;
31760;SDS011;18335;51.486;7.562;2023-03-05T03:36:42;9.48;;;2.90;;
31760;SDS011;18335;51.486;7.562;2023-03-05T03:39:11;12.43;;;2.97;;
31760;SDS011;18335;51.486;7.562;2023-03-05T03:41:40;13.52;;;4.00;;
31760;SDS011;18335;51.486;7.562;2023-03-05T03:44:08;14.57;;;3.33;;
31760;SDS011;18335;51.486;7.562;2023-03-05T03:46:35;13.50;;;3.70;;
31760;SDS011;18335;51.486;7.562;2023-03-05T03:49:03;13.30;;;3.33;;
31760;SDS011;18335;51.486;7.562;2023-03-05T03:51:30;10.73;;;3.33;;
31760;SDS011;18335;51.486;7.562;2023-03-05T03:53:57;15.45;;;5.22;;
31760;SDS011;18335;51.486;7.562;2023-03-05T03:56:24;14.88;;;3.50;;
31760;SDS011;18335;51.486;7.562;2023-03-05T03:58:51;13.18;;;4.05;;
31760;SDS011;18335;51.486;7.562;2023-03-05T04:01:19;12.80;;;4.13;;
31760;SDS011;18335;51.486;7.562;2023-03-05T04:03:46;10.20;;;3.33;;
31760;SDS011;18335;51.486;7.562;2023-03-05T04:06:14;15.18;;;4.18;;
31760;SDS011;18335;51.486;7.562;2023-03-05T04:08:41;13.68;;;3.50;;
31760;SDS011;18335;51.486;7.562;2023-03-05T04:11:08;11.57;;;2.95;;
31760;SDS011;18335;51.486;7.562;2023-03-05T04:13:34;12.63;;;3.25;;
31760;SDS011;18335;51.486;7.562;2023-03-05T04:16:01;10.38;;;2.75;;
31760;SDS011;18335;51.486;7.562;2023-03-05T04:18:28;12.90;;;3.22;;
31760;SDS011;18335;51.486;7.562;2023-03-05T04:20:56;15.98;;;3.75;;
31760;SDS011;18335;51.486;7.562;2023-03-05T04:23:24;12.95;;;3.63;;
31760;SDS011;18335;51.486;7.562;2023-03-05T04:25:51;10.80;;;3.35;;
31760;SDS011;18335;51.486;7.562;2023-03-05T04:28:17;13.48;;;4.40;;
31760;SDS011;18335;51.486;7.562;2023-03-05T04:30:44;15.68;;;4.28;;
31760;SDS011;18335;51.486;7.562;2023-03-05T04:33:11;14.35;;;4.30;;
31760;SDS011;18335;51.486;7.562;2023-03-05T04:35:38;16.13;;;5.25;;
31760;SDS011;18335;51.486;7.562;2023-03-05T04:38:05;19.42;;;5.78;;
31760;SDS011;18335;51.486;7.562;2023-03-05T04:40:33;16.00;;;6.28;;
31760;SDS011;18335;51.486;7.562;2023-03-05T04:43:00;16.80;;;5.75;;
31760;SDS011;18335;51.486;7.562;2023-03-05T04:45:27;14.35;;;6.05;;
31760;SDS011;18335;51.486;7.562;2023-03-05T04:47:54;19.13;;;6.65;;
31760;SDS011;18335;51.486;7.562;2023-03-05T04:50:21;12.57;;;6.20;;
31760;SDS011;18335;51.486;7.562;2023-03-05T04:52:47;17.90;;;6.50;;
31760;SDS011;18335;51.486;7.562;2023-03-05T04:55:15;16.30;;;6.50;;
31760;SDS011;18335;51.486;7.562;2023-03-05T04:57:44;16.35;;;7.75;;
31760;SDS011;18335;51.486;7.562;2023-03-05T05:00:11;16.08;;;6.50;;
31760;SDS011;18335;51.486;7.562;2023-03-05T05:02:40;14.55;;;6.75;;
31760;SDS011;18335;51.486;7.562;2023-03-05T05:05:07;25.63;;;7.47;;
31760;SDS011;18335;51.486;7.562;2023-03-05T05:07:34;23.05;;;8.40;;
31760;SDS011;18335;51.486;7.562;2023-03-05T05:10:01;17.15;;;7.53;;
31760;SDS011;18335;51.486;7.562;2023-03-05T05:12:28;21.92;;;7.90;;
31760;SDS011;18335;51.486;7.562;2023-03-05T05:14:58;21.73;;;8.98;;
31760;SDS011;18335;51.486;7.562;2023-03-05T05:17:24;19.83;;;9.00;;
31760;SDS011;18335;51.486;7.562;2023-03-05T05:19:52;19.42;;;9.05;;
31760;SDS011;18335;51.486;7.562;2023-03-05T05:22:19;25.25;;;9.90;;
31760;SDS011;18335;51.486;7.562;2023-03-05T05:24:45;18.92;;;8.85;;
31760;SDS011;18335;51.486;7.562;2023-03-05T05:27:12;23.33;;;9.75;;
31760;SDS011;18335;51.486;7.562;2023-03-05T05:29:39;16.52;;;8.52;;
31760;SDS011;18335;51.486;7.562;2023-03-05T05:32:08;20.65;;;9.18;;
31760;SDS011;18335;51.486;7.562;2023-03-05T05:34:34;20.52;;;8.15;;
31760;SDS011;18335;51.486;7.562;2023-03-05T05:37:01;18.08;;;8.63;;
31760;SDS011;18335;51.486;7.562;2023-03-05T05:39:28;21.05;;;7.32;;
31760;SDS011;18335;51.486;7.562;2023-03-05T05:41:55;17.40;;;6.97;;
31760;SDS011;18335;51.486;7.562;2023-03-05T05:44:21;35.72;;;9.90;;
31760;SDS011;18335;51.486;7.562;2023-03-05T05:46:48;16.48;;;9.55;;
31760;SDS011;18335;51.486;7.562;2023-03-05T05:49:16;24.30;;;9.43;;
31760;SDS011;18335;51.486;7.562;2023-03-05T05:51:43;16.48;;;8.23;;
31760;SDS011;18335;51.486;7.562;2023-03-05T05:54:11;17.17;;;6.95;;
31760;SDS011;18335;51.486;7.562;2023-03-05T05:56:38;20.35;;;7.50;;
31760;SDS011;18335;51.486;7.562;2023-03-05T05:59:05;19.05;;;8.13;;
31760;SDS011;18335;51.486;7.562;2023-03-05T06:01:33;23.60;;;7.72;;
31760;SDS011;18335;51.486;7.562;2023-03-05T06:04:00;16.50;;;8.65;;
31760;SDS011;18335;51.486;7.562;2023-03-05T06:06:29;14.85;;;5.80;;
31760;SDS011;18335;51.486;7.562;2023-03-05T06:08:56;21.63;;;7.22;;
31760;SDS011;18335;51.486;7.562;2023-03-05T06:11:23;19.45;;;6.45;;
31760;SDS011;18335;51.486;7.562;2023-03-05T06:13:49;18.85;;;6.28;;
31760;SDS011;18335;51.486;7.562;2023-03-05T06:16:17;17.23;;;7.18;;
31760;SDS011;18335;51.486;7.562;2023-03-05T06:18:45;31.25;;;9.25;;
31760;SDS011;18335;51.486;7.562;2023-03-05T06:21:12;19.15;;;8.35;;
31760;SDS011;18335;51.486;7.562;2023-03-05T06:23:41;19.45;;;9.00;;
31760;SDS011;18335;51.486;7.562;2023-03-05T06:26:09;27.42;;;10.32;;
31760;SDS011;18335;51.486;7.562;2023-03-05T06:28:37;24.58;;;9.63;;
31760;SDS011;18335;51.486;7.562;2023-03-05T06:31:05;28.35;;;10.40;;
31760;SDS011;18335;51.486;7.562;2023-03-05T06:33:33;28.13;;;13.10;;
31760;SDS011;18335;51.486;7.562;2023-03-05T06:36:02;24.70;;;9.93;;
31760;SDS011;18335;51.486;7.562;2023-03-05T06:38:30;24.33;;;11.20;;
31760;SDS011;18335;51.486;7.562;2023-03-05T06:41:00;21.35;;;9.80;;
31760;SDS011;18335;51.486;7.562;2023-03-05T06:43:30;24.17;;;9.70;;
31760;SDS011;18335;51.486;7.562;2023-03-05T06:46:00;21.42;;;9.38;;
31760;SDS011;18335;51.486;7.562;2023-03-05T06:48:28;23.02;;;10.18;;
31760;SDS011;18335;51.486;7.562;2023-03-05T06:50:55;22.95;;;9.95;;
31760;SDS011;18335;51.486;7.562;2023-03-05T06:53:22;25.20;;;12.00;;
31760;SDS011;18335;51.486;7.562;2023-03-05T06:55:48;28.58;;;12.63;;
31760;SDS011;18335;51.486;7.562;2023-03-05T06:58:17;29.60;;;13.45;;
31760;SDS011;18335;51.486;7.562;2023-03-05T07:00:43;28.25;;;13.73;;
31760;SDS011;18335;51.486;7.562;2023-03-05T07:03:10;27.88;;;12.00;;
31760;SDS011;18335;51.486;7.562;2023-03-05T07:05:38;30.23;;;12.65;;
31760;SDS011;18335;51.486;7.562;2023-03-05T07:08:05;23.15;;;12.60;;
31760;SDS011;18335;51.486;7.562;2023-03-05T07:10:35;20.77;;;9.45;;
31760;SDS011;18335;51.486;7.562;2023-03-05T07:13:03;21.48;;;9.85;;
31760;SDS011;18335;51.486;7.562;2023-03-05T07:15:31;21.25;;;9.75;;
31760;SDS011;18335;51.486;7.562;2023-03-05T07:17:57;24.00;;;10.15;;
31760;SDS011;18335;51.486;7.562;2023-03-05T07:20:24;23.13;;;10.70;;
31760;SDS011;18335;51.486;7.562;2023-03-05T07:22:51;19.15;;;10.20;;
31760;SDS011;18335;51.486;7.562;2023-03-05T07:25:18;21.92;;;9.85;;
31760;SDS011;18335;51.486;7.562;2023-03-05T07:27:46;24.77;;;9.80;;
31760;SDS011;18335;51.486;7.562;2023-03-05T07:30:13;30.00;;;13.82;;
31760;SDS011;18335;51.486;7.562;2023-03-05T07:32:42;21.73;;;11.65;;
31760;SDS011;18335;51.486;7.562;2023-03-05T07:35:08;24.88;;;11.63;;
31760;SDS011;18335;51.486;7.562;2023-03-05T07:37:35;26.20;;;11.90;;
31760;SDS011;18335;51.486;7.562;2023-03-05T07:40:02;23.25;;;12.50;;
31760;SDS011;18335;51.486;7.562;2023-03-05T07:42:30;20.77;;;11.88;;
31760;SDS011;18335;51.486;7.562;2023-03-05T07:45:09;22.30;;;12.48;;
31760;SDS011;18335;51.486;7.562;2023-03-05T07:47:36;24.38;;;12.40;;
31760;SDS011;18335;51.486;7.562;2023-03-05T07:50:05;27.52;;;14.55;;
31760;SDS011;18335;51.486;7.562;2023-03-05T07:52:32;25.92;;;14.57;;
31760;SDS011;18335;51.486;7.562;2023-03-05T07:54:59;30.55;;;15.27;;
31760;SDS011;18335;51.486;7.562;2023-03-05T07:57:26;27.02;;;14.30;;
31760;SDS011;18335;51.486;7.562;2023-03-05T07:59:53;29.00;;;16.05;;
31760;SDS011;18335;51.486;7.562;2023-03-05T08:02:19;30.40;;;14.23;;
31760;SDS011;18335;51.486;7.562;2023-03-05T08:04:47;29.33;;;16.98;;
31760;SDS011;18335;51.486;7.562;2023-03-05T08:07:15;28.02;;;15.30;;
31760;SDS011;18335;51.486;7.562;2023-03-05T08:09:42;27.48;;;15.35;;
31760;SDS011;18335;51.486;7.562;2023-03-05T08:12:09;31.17;;;16.17;;
31760;SDS011;18335;51.486;7.562;2023-03-05T08:14:36;28.73;;;17.20;;
31760;SDS011;18335;51.486;7.562;2023-03-05T08:17:03;28.02;;;16.30;;
31760;SDS011;18335;51.486;7.562;2023-03-05T08:19:31;32.10;;;16.67;;
31760;SDS011;18335;51.486;7.562;2023-03-05T08:21:58;27.67;;;15.43;;
31760;SDS011;18335;51.486;7.562;2023-03-05T08:24:27;28.10;;;14.52;;
31760;SDS011;18335;51.486;7.562;2023-03-05T08:26:54;25.23;;;14.30;;
31760;SDS011;18335;51.486;7.562;2023-03-05T08:29:21;26.30;;;13.73;;
31760;SDS011;18335;51.486;7.562;2023-03-05T08:31:49;26.20;;;14.52;;
31760;SDS011;18335;51.486;7.562;2023-03-05T08:34:17;25.17;;;15.32;;
31760;SDS011;18335;51.486;7.562;2023-03-05T08:36:44;25.48;;;13.98;;
31760;SDS011;18335;51.486;7.562;2023-03-05T08:39:12;25.17;;;13.45;;
31760;SDS011;18335;51.486;7.562;2023-03-05T08:41:40;17.98;;;11.25;;
31760;SDS011;18335;51.486;7.562;2023-03-05T08:44:06;23.10;;;12.32;;
31760;SDS011;18335;51.486;7.562;2023-03-05T08:46:33;19.08;;;11.02;;
31760;SDS011;18335;51.486;7.562;2023-03-05T08:49:01;22.50;;;12.18;;
31760;SDS011;18335;51.486;7.562;2023-03-05T08:51:28;21.55;;;11.73;;
31760;SDS011;18335;51.486;7.562;2023-03-05T08:53:56;19.63;;;10.85;;
31760;SDS011;18335;51.486;7.562;2023-03-05T08:56:24;21.92;;;11.02;;
31760;SDS011;18335;51.486;7.562;2023-03-05T08:58:54;20.88;;;11.02;;
31760;SDS011;18335;51.486;7.562;2023-03-05T09:01:20;24.52;;;11.85;;
31760;SDS011;18335;51.486;7.562;2023-03-05T09:03:48;20.40;;;10.05;;
31760;SDS011;18335;51.486;7.562;2023-03-05T09:06:14;20.42;;;10.60;;
31760;SDS011;18335;51.486;7.562;2023-03-05T09:08:41;26.33;;;12.60;;
31760;SDS011;18335;51.486;7.562;2023-03-05T09:11:09;22.90;;;12.63;;
31760;SDS011;18335;51.486;7.562;2023-03-05T09:13:37;21.88;;;10.60;;
31760;SDS011;18335;51.486;7.562;2023-03-05T09:16:07;21.20;;;9.85;;
31760;SDS011;18335;51.486;7.562;2023-03-05T09:18:36;18.85;;;10.75;;
31760;SDS011;18335;51.486;7.562;2023-03-05T09:21:04;17.20;;;9.40;;
31760;SDS011;18335;51.486;7.562;2023-03-05T09:23:32;17.10;;;9.68;;
31760;SDS011;18335;51.486;7.562;2023-03-05T09:25:59;18.23;;;9.65;;
31760;SDS011;18335;51.486;7.562;2023-03-05T09:28:26;16.00;;;10.20;;
31760;SDS011;18335;51.486;7.562;2023-03-05T09:30:53;18.05;;;8.93;;
31760;SDS011;18335;51.486;7.562;2023-03-05T09:33:21;17.83;;;9.65;;
31760;SDS011;18335;51.486;7.562;2023-03-05T09:35:49;18.58;;;9.73;;
31760;SDS011;18335;51.486;7.562;2023-03-05T09:38:16;21.02;;;10.52;;
31760;SDS011;18335;51.486;7.562;2023-03-05T09:40:45;15.77;;;9.95;;
31760;SDS011;18335;51.486;7.562;2023-03-05T09:43:21;15.60;;;9.55;;
31760;SDS011;18335;51.486;7.562;2023-03-05T09:46:01;17.50;;;9.50;;
31760;SDS011;18335;51.486;7.562;2023-03-05T09:48:41;17.27;;;10.27;;
31760;SDS011;18335;51.486;7.562;2023-03-05T09:51:15;19.85;;;10.93;;
31760;SDS011;18335;51.486;7.562;2023-03-05T09:53:47;19.23;;;9.82;;
31760;SDS011;18335;51.486;7.562;2023-03-05T09:56:20;17.67;;;10.57;;
31760;SDS011;18335;51.486;7.562;2023-03-05T09:58:51;21.02;;;12.25;;
31760;SDS011;18335;51.486;7.562;2023-03-05T10:01:20;22.30;;;13.27;;
31760;SDS011;18335;51.486;7.562;2023-03-05T10:03:54;22.20;;;14.18;;
31760;SDS011;18335;51.486;7.562;2023-03-05T10:06:24;28.90;;;14.50;;
31760;SDS011;18335;51.486;7.562;2023-03-05T10:08:55;23.25;;;13.90;;
31760;SDS011;18335;51.486;7.562;2023-03-05T10:11:33;20.45;;;12.88;;
31760;SDS011;18335;51.486;7.562;2023-03-05T10:14:10;18.30;;;12.18;;
31760;SDS011;18335;51.486;7.562;2023-03-05T10:16:50;21.25;;;12.88;;
31760;SDS011;18335;51.486;7.562;2023-03-05T10:19:35;17.48;;;11.75;;
31760;SDS011;18335;51.486;7.562;2023-03-05T10:22:18;21.58;;;12.70;;
31760;SDS011;18335;51.486;7.562;2023-03-05T10:24:51;14.00;;;9.00;;
31760;SDS011;18335;51.486;7.562;2023-03-05T10:27:32;11.93;;;7.10;;
31760;SDS011;18335;51.486;7.562;2023-03-05T10:32:43;10.13;;;6.50;;
31760;SDS011;18335;51.486;7.562;2023-03-05T10:35:23;11.32;;;7.47;;
31760;SDS011;18335;51.486;7.562;2023-03-05T10:38:18;14.10;;;7.40;;
31760;SDS011;18335;51.486;7.562;2023-03-05T10:41:10;11.82;;;6.20;;
31760;SDS011;18335;51.486;7.562;2023-03-05T10:43:49;13.02;;;6.68;;
31760;SDS011;18335;51.486;7.562;2023-03-05T10:46:24;12.60;;;6.22;;
31760;SDS011;18335;51.486;7.562;2023-03-05T10:48:57;11.55;;;7.00;;
31760;SDS011;18335;51.486;7.562;2023-03-05T10:51:30;12.30;;;6.40;;
31760;SDS011;18335;51.486;7.562;2023-03-05T10:54:01;17.63;;;10.18;;
31760;SDS011;18335;51.486;7.562;2023-03-05T10:56:35;15.63;;;10.20;;
31760;SDS011;18335;51.486;7.562;2023-03-05T10:59:02;13.65;;;8.88;;
31760;SDS011;18335;51.486;7.562;2023-03-05T11:01:29;14.68;;;7.47;;
31760;SDS011;18335;51.486;7.562;2023-03-05T11:03:57;13.77;;;6.60;;
31760;SDS011;18335;51.486;7.562;2023-03-05T11:06:30;13.35;;;6.65;;
31760;SDS011;18335;51.486;7.562;2023-03-05T11:09:15;13.55;;;6.20;;
31760;SDS011;18335;51.486;7.562;2023-03-05T11:12:00;9.88;;;5.35;;
31760;SDS011;18335;51.486;7.562;2023-03-05T11:14:29;12.70;;;6.13;;
31760;SDS011;18335;51.486;7.562;2023-03-05T11:16:58;9.80;;;4.63;;
31760;SDS011;18335;51.486;7.562;2023-03-05T11:19:26;9.13;;;3.95;;
31760;SDS011;18335;51.486;7.562;2023-03-05T11:22:09;11.57;;;4.55;;
31760;SDS011;18335;51.486;7.562;2023-03-05T11:24:41;8.20;;;3.85;;
31760;SDS011;18335;51.486;7.562;2023-03-05T11:27:21;8.65;;;4.43;;
31760;SDS011;18335;51.486;7.562;2023-03-05T11:29:51;10.63;;;4.60;;
31760;SDS011;18335;51.486;7.562;2023-03-05T11:32:20;11.20;;;4.88;;
31760;SDS011;18335;51.486;7.562;2023-03-05T11:34:49;10.27;;;4.70;;
31760;SDS011;18335;51.486;7.562;2023-03-05T11:37:23;10.60;;;4.15;;
31760;SDS011;18335;51.486;7.562;2023-03-05T11:40:13;10.70;;;4.25;;
31760;SDS011;18335;51.486;7.562;2023-03-05T11:42:46;7.93;;;3.95;;
31760;SDS011;18335;51.486;7.562;2023-03-05T11:45:19;8.27;;;3.65;;
31760;SDS011;18335;51.486;7.562;2023-03-05T11:47:48;9.52;;;4.55;;
31760;SDS011;18335;51.486;7.562;2023-03-05T11:50:18;8.52;;;3.80;;
31760;SDS011;18335;51.486;7.562;2023-03-05T11:52:50;11.55;;;5.20;;
31760;SDS011;18335;51.486;7.562;2023-03-05T11:55:18;8.48;;;3.38;;
31760;SDS011;18335;51.486;7.562;2023-03-05T11:57:49;10.88;;;4.68;;
31760;SDS011;18335;51.486;7.562;2023-03-05T12:00:23;10.32;;;3.42;;
31760;SDS011;18335;51.486;7.562;2023-03-05T12:02:56;6.03;;;2.90;;
31760;SDS011;18335;51.486;7.562;2023-03-05T12:05:30;9.77;;;3.63;;
31760;SDS011;18335;51.486;7.562;2023-03-05T12:08:00;7.97;;;4.05;;
31760;SDS011;18335;51.486;7.562;2023-03-05T12:10:30;9.02;;;3.58;;
31760;SDS011;18335;51.486;7.562;2023-03-05T12:12:58;9.18;;;3.40;;
31760;SDS011;18335;51.486;7.562;2023-03-05T12:15:36;9.48;;;4.63;;
31760;SDS011;18335;51.486;7.562;2023-03-05T12:23:36;11.93;;;4.90;;
31760;SDS011;18335;51.486;7.562;2023-03-05T12:26:11;10.90;;;4.53;;
31760;SDS011;18335;51.486;7.562;2023-03-05T12:28:52;8.93;;;3.42;;
31760;SDS011;18335;51.486;7.562;2023-03-05T12:31:28;7.07;;;3.45;;
31760;SDS011;18335;51.486;7.562;2023-03-05T12:37:01;6.68;;;3.22;;
31760;SDS011;18335;51.486;7.562;2023-03-05T12:42:41;6.30;;;2.88;;
31760;SDS011;18335;51.486;7.562;2023-03-05T12:45:23;7.85;;;3.38;;
31760;SDS011;18335;51.486;7.562;2023-03-05T12:50:57;8.13;;;3.85;;
31760;SDS011;18335;51.486;7.562;2023-03-05T12:53:28;9.48;;;4.22;;
31760;SDS011;18335;51.486;7.562;2023-03-05T12:55:58;6.75;;;3.22;;
31760;SDS011;18335;51.486;7.562;2023-03-05T12:58:33;11.18;;;4.38;;
31760;SDS011;18335;51.486;7.562;2023-03-05T13:01:06;13.35;;;3.40;;
31760;SDS011;18335;51.486;7.562;2023-03-05T13:03:47;12.55;;;4.65;;
31760;SDS011;18335;51.486;7.562;2023-03-05T13:06:23;7.13;;;3.42;;
31760;SDS011;18335;51.486;7.562;2023-03-05T13:08:59;10.02;;;4.53;;
31760;SDS011;18335;51.486;7.562;2023-03-05T13:11:29;8.25;;;3.10;;
31760;SDS011;18335;51.486;7.562;2023-03-05T13:13:59;7.43;;;3.42;;
31760;SDS011;18335;51.486;7.562;2023-03-05T13:16:28;7.53;;;3.42;;
31760;SDS011;18335;51.486;7.562;2023-03-05T13:19:02;9.65;;;4.82;;
31760;SDS011;18335;51.486;7.562;2023-03-05T13:21:30;11.48;;;4.63;;
31760;SDS011;18335;51.486;7.562;2023-03-05T13:24:01;9.02;;;4.35;;
31760;SDS011;18335;51.486;7.562;2023-03-05T13:26:36;7.38;;;3.65;;
31760;SDS011;18335;51.486;7.562;2023-03-05T13:29:05;10.60;;;3.92;;
31760;SDS011;18335;51.486;7.562;2023-03-05T13:31:39;7.45;;;3.10;;
31760;SDS011;18335;51.486;7.562;2023-03-05T13:34:21;9.40;;;3.72;;
31760;SDS011;18335;51.486;7.562;2023-03-05T13:36:53;8.50;;;3.88;;
31760;SDS011;18335;51.486;7.562;2023-03-05T13:39:27;11.32;;;4.00;;
31760;SDS011;18335;51.486;7.562;2023-03-05T13:42:03;8.63;;;3.03;;
31760;SDS011;18335;51.486;7.562;2023-03-05T13:44:32;8.95;;;3.00;;
31760;SDS011;18335;51.486;7.562;2023-03-05T13:47:14;7.68;;;3.00;;
31760;SDS011;18335;51.486;7.562;2023-03-05T13:49:44;6.10;;;2.55;;
31760;SDS011;18335;51.486;7.562;2023-03-05T13:52:11;10.32;;;3.50;;
31760;SDS011;18335;51.486;7.562;2023-03-05T13:54:48;8.85;;;3.95;;
31760;SDS011;18335;51.486;7.562;2023-03-05T14:02:57;10.00;;;4.32;;
31760;SDS011;18335;51.486;7.562;2023-03-05T14:05:27;10.50;;;4.65;;
31760;SDS011;18335;51.486;7.562;2023-03-05T14:07:56;11.35;;;4.60;;
31760;SDS011;18335;51.486;7.562;2023-03-05T14:10:28;8.90;;;4.70;;
31760;SDS011;18335;51.486;7.562;2023-03-05T14:12:59;12.10;;;5.53;;
31760;SDS011;18335;51.486;7.562;2023-03-05T14:15:30;10.98;;;5.38;;
31760;SDS011;18335;51.486;7.562;2023-03-05T14:18:14;11.45;;;5.43;;
31760;SDS011;18335;51.486;7.562;2023-03-05T14:23:39;9.88;;;5.15;;
31760;SDS011;18335;51.486;7.562;2023-03-05T14:26:25;11.15;;;5.35;;
31760;SDS011;18335;51.486;7.562;2023-03-05T14:28:58;11.05;;;5.05;;
31760;SDS011;18335;51.486;7.562;2023-03-05T14:31:29;10.60;;;4.97;;
31760;SDS011;18335;51.486;7.562;2023-03-05T14:33:59;12.73;;;5.65;;
31760;SDS011;18335;51.486;7.562;2023-03-05T14:36:27;9.75;;;5.30;;
31760;SDS011;18335;51.486;7.562;2023-03-05T14:38:55;12.77;;;5.90;;
31760;SDS011;18335;51.486;7.562;2023-03-05T14:41:30;9.60;;;4.82;;
31760;SDS011;18335;51.486;7.562;2023-03-05T14:44:00;13.57;;;5.88;;
31760;SDS011;18335;51.486;7.562;2023-03-05T14:46:29;10.07;;;4.68;;
31760;SDS011;18335;51.486;7.562;2023-03-05T14:48:55;10.52;;;4.53;;
31760;SDS011;18335;51.486;7.562;2023-03-05T14:51:22;8.40;;;4.10;;
31760;SDS011;18335;51.486;7.562;2023-03-05T14:53:50;8.77;;;4.25;;
31760;SDS011;18335;51.486;7.562;2023-03-05T14:56:17;9.38;;;5.10;;
31760;SDS011;18335;51.486;7.562;2023-03-05T14:58:48;11.57;;;4.93;;
31760;SDS011;18335;51.486;7.562;2023-03-05T15:01:15;9.57;;;4.40;;
31760;SDS011;18335;51.486;7.562;2023-03-05T15:03:43;10.38;;;4.25;;
31760;SDS011;18335;51.486;7.562;2023-03-05T15:06:13;8.30;;;4.35;;
31760;SDS011;18335;51.486;7.562;2023-03-05T15:08:44;11.45;;;5.80;;
31760;SDS011;18335;51.486;7.562;2023-03-05T15:11:11;12.32;;;5.07;;
31760;SDS011;18335;51.486;7.562;2023-03-05T15:13:38;9.90;;;4.80;;